Time;durP1;ratioP1;P1;durP2;ratioP2;P2;SDS_P1;SDS_P2;PMS_P1;PMS_P2;Temp;Humidity;BMP_temperature;BMP_pressure;BME280_temperature;BME280_humidity;BME280_pressure;Samples;Min_cycle;Max_cycle;Signal;HPM_P1;HPM_P2
2021/01/11 00:00:26;;;;;;;39.50;21.10;;;;;;;2.57;97.29;102021.50;5036153;28;20111;-65
2021/01/11 00:02:52;;;;;;;39.88;20.48;;;;;;;2.57;97.47;102021.50;5038661;28;20048;-64
2021/01/11 00:05:19;;;;;;;38.47;18.05;;;;;;;2.56;97.86;102018.00;5039213;28;20058;-65
2021/01/11 00:07:45;;;;;;;39.88;21.55;;;;;;;2.57;97.13;102018.84;5038209;28;20045;-64
2021/01/11 00:10:12;;;;;;;37.05;20.77;;;;;;;2.63;97.15;102018.63;5040179;28;20437;-65
2021/01/11 00:12:39;;;;;;;37.45;20.30;;;;;;;2.59;97.16;102016.97;5036738;28;20044;-64
2021/01/11 00:15:07;;;;;;;39.28;20.23;;;;;;;2.59;97.35;102014.31;5042265;28;20049;-64
2021/01/11 00:17:33;;;;;;;40.28;20.83;;;;;;;2.62;97.08;102023.06;5042340;28;20112;-65
2021/01/11 00:19:59;;;;;;;40.92;21.17;;;;;;;2.59;96.99;102001.94;5041638;28;20456;-64
2021/01/11 00:22:26;;;;;;;39.08;20.52;;;;;;;2.58;97.56;102004.63;5042415;28;20434;-65
2021/01/11 00:24:52;;;;;;;39.67;21.52;;;;;;;2.58;97.48;102004.63;5041634;28;20064;-64
2021/01/11 00:27:18;;;;;;;38.80;20.40;;;;;;;2.58;97.87;101996.66;5041703;28;20107;-65
2021/01/11 00:29:44;;;;;;;41.15;20.92;;;;;;;2.61;98.00;102005.38;5040078;28;20489;-65
2021/01/11 00:32:10;;;;;;;40.50;21.83;;;;;;;2.61;98.11;101996.56;5042889;28;20053;-65
2021/01/11 00:34:35;;;;;;;37.13;19.80;;;;;;;2.60;97.77;101986.84;5041907;28;20391;-65
2021/01/11 00:37:01;;;;;;;39.53;21.33;;;;;;;2.57;97.66;101982.50;5062010;22;20086;-64
2021/01/11 00:39:29;;;;;;;38.55;19.75;;;;;;;2.57;98.01;101976.31;5023293;28;20046;-64
2021/01/11 00:41:56;;;;;;;36.47;19.13;;;;;;;2.59;97.90;101979.78;5020101;28;20053;-64
2021/01/11 00:44:23;;;;;;;38.35;22.15;;;;;;;2.58;98.03;101988.69;5017898;28;20049;-64
2021/01/11 00:46:49;;;;;;;39.78;21.48;;;;;;;2.59;97.90;101971.81;5020393;28;20045;-64
2021/01/11 00:49:15;;;;;;;36.80;21.48;;;;;;;2.56;97.77;101969.25;5020671;28;20057;-64
2021/01/11 00:51:41;;;;;;;35.95;18.92;;;;;;;2.61;97.72;101978.81;5022294;28;20062;-64
2021/01/11 00:54:07;;;;;;;34.40;18.77;;;;;;;2.59;97.27;101971.81;5040162;28;20078;-63
2021/01/11 00:56:34;;;;;;;37.35;18.90;;;;;;;2.61;97.13;101973.47;5041393;28;20053;-65
2021/01/11 00:59:00;;;;;;;35.88;19.40;;;;;;;2.62;97.43;101974.34;5042036;28;20132;-65
2021/01/11 01:01:26;;;;;;;37.70;20.90;;;;;;;2.59;97.47;101969.16;5041899;28;20045;-65
2021/01/11 01:03:52;;;;;;;38.00;20.33;;;;;;;2.65;97.49;101984.00;5041972;28;20057;-64
2021/01/11 01:06:18;;;;;;;40.40;19.58;;;;;;;2.64;97.45;101969.84;5041390;28;21165;-64
2021/01/11 01:08:44;;;;;;;36.58;19.63;;;;;;;2.63;97.85;101966.34;5042345;28;20467;-64
2021/01/11 01:11:10;;;;;;;37.15;19.60;;;;;;;2.65;97.70;101965.41;5040175;28;20132;-64
2021/01/11 01:13:37;;;;;;;33.65;18.40;;;;;;;2.67;96.80;101969.75;5039611;28;20072;-64
2021/01/11 01:16:03;;;;;;;36.95;20.73;;;;;;;2.68;97.72;101974.13;5039798;28;20092;-64
2021/01/11 01:18:29;;;;;;;36.72;19.58;;;;;;;2.68;97.31;101963.50;5042828;28;20048;-64
2021/01/11 01:20:55;;;;;;;40.95;21.65;;;;;;;2.69;96.91;101965.22;5039625;28;20080;-65
2021/01/11 01:23:21;;;;;;;40.47;21.63;;;;;;;2.70;97.40;101969.63;5038526;28;20057;-65
2021/01/11 01:25:47;;;;;;;40.15;21.50;;;;;;;2.68;96.92;101968.81;5040414;28;20510;-65
2021/01/11 01:28:13;;;;;;;42.65;22.67;;;;;;;2.68;97.15;101962.63;5042409;28;20674;-65
2021/01/11 01:30:40;;;;;;;37.45;22.08;;;;;;;2.68;97.33;101958.19;5040787;28;20053;-65
2021/01/11 01:33:06;;;;;;;41.20;22.55;;;;;;;2.68;97.33;101958.19;5038925;28;20099;-64
2021/01/11 01:35:32;;;;;;;37.45;21.83;;;;;;;2.70;97.61;101960.78;5037691;28;20468;-64
2021/01/11 01:37:58;;;;;;;42.05;21.55;;;;;;;2.67;97.34;101956.44;5052293;28;20519;-64
2021/01/11 01:40:25;;;;;;;42.53;20.73;;;;;;;2.69;97.04;101954.59;5060136;28;20056;-64
2021/01/11 01:42:51;;;;;;;39.58;20.77;;;;;;;2.71;96.83;101960.72;5060595;28;20064;-64
2021/01/11 01:45:18;;;;;;;37.70;21.40;;;;;;;2.70;97.43;101952.81;5060912;28;20056;-63
2021/01/11 01:47:46;;;;;;;38.15;21.77;;;;;;;2.69;97.25;101953.72;5060200;28;20052;-65
2021/01/11 01:50:12;;;;;;;39.88;20.20;;;;;;;2.72;97.66;101950.94;5060812;28;20052;-65
2021/01/11 01:52:39;;;;;;;39.70;22.08;;;;;;;2.69;97.43;101954.59;5059965;28;20174;-64
2021/01/11 01:55:06;;;;;;;39.95;21.35;;;;;;;2.70;96.78;101956.31;5059109;28;20494;-65
2021/01/11 01:57:32;;;;;;;40.97;20.90;;;;;;;2.71;97.60;101959.84;5058597;28;20040;-64
2021/01/11 01:59:59;;;;;;;41.40;21.23;;;;;;;2.72;96.89;101946.50;5060581;28;20052;-65
2021/01/11 02:02:25;;;;;;;39.83;21.65;;;;;;;2.75;97.47;101950.81;5059536;28;20055;-64
2021/01/11 02:04:51;;;;;;;41.97;21.85;;;;;;;2.75;97.17;101957.03;5057192;28;20040;-65
2021/01/11 02:07:25;;;;;;;40.92;21.45;;;;;;;2.75;96.89;101961.47;5060451;28;20049;-65
2021/01/11 02:10:02;;;;;;;41.38;21.55;;;;;;;2.74;97.50;101954.41;5061512;28;20079;-65
2021/01/11 02:12:41;;;;;;;41.20;20.63;;;;;;;2.75;96.80;101958.81;5058103;28;20135;-65
2021/01/11 02:15:13;;;;;;;43.25;23.55;;;;;;;2.78;97.02;101954.25;5059211;28;20053;-64
2021/01/11 02:17:46;;;;;;;43.80;21.52;;;;;;;2.80;97.18;101940.91;5059459;28;20045;-64
2021/01/11 02:20:45;;;;;;;41.83;21.10;;;;;;;2.80;96.84;101946.22;5060396;28;20107;-64
2021/01/11 02:23:36;;;;;;;43.03;21.45;;;;;;;2.80;97.10;101938.25;5058345;28;20053;-65
2021/01/11 02:26:08;;;;;;;47.13;24.17;;;;;;;2.78;96.92;101937.41;5058911;28;20053;-64
2021/01/11 02:28:54;;;;;;;46.10;22.05;;;;;;;2.78;97.00;101930.31;5060953;28;20061;-64
2021/01/11 02:31:24;;;;;;;44.80;26.15;;;;;;;2.78;97.43;101929.44;5059031;28;20044;-64
2021/01/11 02:33:53;;;;;;;42.63;21.42;;;;;;;2.80;96.95;101931.13;5060387;28;20126;-64
2021/01/11 02:36:20;;;;;;;41.15;23.00;;;;;;;2.84;97.08;101931.84;5059169;28;20114;-65
2021/01/11 02:38:47;;;;;;;42.05;22.35;;;;;;;2.83;96.93;101927.47;5055744;28;20124;-64
2021/01/11 02:41:13;;;;;;;44.10;23.35;;;;;;;2.79;97.11;101923.19;5058978;28;20094;-65
2021/01/11 02:43:39;;;;;;;44.15;22.77;;;;;;;2.77;97.38;101917.09;5066816;23;20045;-65
2021/01/11 02:46:06;;;;;;;43.15;22.45;;;;;;;2.84;97.43;101915.03;5055805;28;20166;-65
2021/01/11 02:48:36;;;;;;;44.72;24.35;;;;;;;2.77;97.27;101903.81;5059411;28;20045;-64
2021/01/11 02:51:10;;;;;;;46.95;25.27;;;;;;;2.73;97.06;101918.13;5060024;28;20052;-65
2021/01/11 02:53:45;;;;;;;46.55;25.83;;;;;;;2.73;96.93;101923.44;5056832;28;20149;-65
2021/01/11 02:59:18;;;;;;;51.53;25.63;;;;;;;2.73;97.28;101918.13;5034854;23;20190;-65
2021/01/11 03:01:49;;;;;;;51.22;27.77;;;;;;;2.71;96.68;101920.84;5039344;28;20044;-64
2021/01/11 03:04:21;;;;;;;52.95;26.52;;;;;;;2.71;96.76;101925.28;5034728;28;20410;-66
2021/01/11 03:06:57;;;;;;;54.58;30.48;;;;;;;2.71;97.44;101925.28;5040359;28;20100;-65
2021/01/11 03:09:23;;;;;;;57.78;29.50;;;;;;;2.72;96.60;101922.56;5038709;28;20453;-65
2021/01/11 03:11:49;;;;;;;49.30;25.58;;;;;;;2.73;97.53;101924.31;5037955;28;20494;-64
2021/01/11 03:14:15;;;;;;;56.83;29.60;;;;;;;2.73;97.32;101924.31;5036559;28;20103;-64
2021/01/11 03:16:41;;;;;;;52.20;27.25;;;;;;;2.74;97.12;101925.16;5039880;28;20053;-65
2021/01/11 03:19:07;;;;;;;57.88;28.38;;;;;;;2.71;97.26;101912.00;5039353;28;20078;-65
2021/01/11 03:21:34;;;;;;;58.40;28.95;;;;;;;2.73;97.44;101913.66;5038541;28;20045;-65
2021/01/11 03:24:00;;;;;;;56.03;27.80;;;;;;;2.69;97.55;101906.72;5038715;28;20390;-64
2021/01/11 03:26:26;;;;;;;60.60;30.75;;;;;;;2.65;97.24;101899.84;5039385;28;20045;-66
2021/01/11 03:28:53;;;;;;;56.90;28.58;;;;;;;2.65;97.51;101909.56;5037492;28;20053;-65
2021/01/11 03:31:19;;;;;;;64.68;29.55;;;;;;;2.66;97.36;101914.81;5037223;28;20049;-65
2021/01/11 03:33:45;;;;;;;66.68;33.80;;;;;;;2.64;97.52;101908.72;5038283;28;20056;-65
2021/01/11 03:36:11;;;;;;;62.05;31.02;;;;;;;2.62;97.76;101910.56;5036694;28;20053;-64
2021/01/11 03:38:40;;;;;;;62.55;29.35;;;;;;;2.59;97.50;101908.91;5039726;28;20470;-65
2021/01/11 03:41:07;;;;;;;69.00;31.90;;;;;;;2.53;97.49;101900.28;5037981;28;20547;-64
2021/01/11 03:43:33;;;;;;;76.30;36.72;;;;;;;2.52;97.32;101898.53;5037340;28;20539;-65
2021/01/11 03:45:59;;;;;;;79.43;37.00;;;;;;;2.47;98.05;101898.72;5042773;28;20487;-63
2021/01/11 03:49:06;;;;;;;71.45;34.30;;;;;;;2.43;98.17;101890.00;5048237;22;20152;-65
2021/01/11 03:51:32;;;;;;;80.95;39.70;;;;;;;2.38;97.81;101899.94;5000137;28;20410;-65
2021/01/11 03:53:58;;;;;;;85.03;41.08;;;;;;;2.36;97.94;101899.13;5001485;28;20077;-65
2021/01/11 03:56:24;;;;;;;78.88;37.65;;;;;;;2.36;98.08;101891.16;5000533;28;20054;-65
2021/01/11 03:58:50;;;;;;;87.13;38.85;;;;;;;2.36;97.92;101895.63;5002229;28;20046;-65
2021/01/11 04:01:16;;;;;;;82.28;39.05;;;;;;;2.40;98.31;101892.78;5000744;28;20112;-65
2021/01/11 04:03:42;;;;;;;91.63;45.70;;;;;;;2.32;97.94;101876.25;5003299;28;20047;-64
2021/01/11 04:06:09;;;;;;;84.93;39.30;;;;;;;2.30;97.47;101866.59;5002998;28;20062;-64
2021/01/11 04:08:35;;;;;;;90.93;43.13;;;;;;;2.29;97.71;101863.09;5001952;28;20439;-64
2021/01/11 04:11:02;;;;;;;87.63;40.47;;;;;;;2.27;98.24;101860.50;4997355;28;20050;-64
2021/01/11 04:13:28;;;;;;;95.82;42.10;;;;;;;2.28;97.93;101856.03;4997649;28;20045;-65
2021/01/11 04:15:54;;;;;;;86.85;39.25;;;;;;;2.33;98.49;101866.53;4999444;28;20054;-65
2021/01/11 04:18:20;;;;;;;92.03;40.83;;;;;;;2.30;97.75;101854.22;4998616;28;20058;-65
2021/01/11 04:20:46;;;;;;;89.53;41.10;;;;;;;2.28;97.75;101853.38;5000304;28;20046;-65
2021/01/11 04:23:12;;;;;;;94.57;41.35;;;;;;;2.25;97.82;101842.88;5002327;28;20054;-65
2021/01/11 04:25:38;;;;;;;96.93;40.40;;;;;;;2.26;98.65;101853.44;4996754;28;20074;-64
2021/01/11 04:28:05;;;;;;;103.57;40.63;;;;;;;2.27;98.48;101851.66;4998676;28;20053;-65
2021/01/11 04:30:31;;;;;;;111.20;46.72;;;;;;;2.23;98.51;101850.91;4997418;28;20050;-65
2021/01/11 04:32:57;;;;;;;99.78;42.92;;;;;;;2.25;98.82;101845.53;5002738;28;20054;-64
2021/01/11 04:35:25;;;;;;;101.95;43.85;;;;;;;2.26;98.79;101849.94;4996662;28;20059;-64
2021/01/11 04:41:33;;;;;;;109.28;45.58;;;;;;;2.24;98.93;101846.47;5002085;28;20108;-64
2021/01/11 04:44:02;;;;;;;118.03;49.55;;;;;;;2.18;98.93;101826.31;5001192;28;20046;-65
2021/01/11 04:46:29;;;;;;;115.45;46.55;;;;;;;2.23;98.73;101844.72;5003625;28;20046;-65
2021/01/11 04:48:55;;;;;;;114.97;43.67;;;;;;;2.17;98.24;101835.19;5003470;28;20057;-66
2021/01/11 04:51:21;;;;;;;115.15;43.25;;;;;;;2.17;99.32;101823.72;5001680;28;20050;-65
2021/01/11 04:53:50;;;;;;;122.60;44.13;;;;;;;2.22;99.20;101837.69;5002893;28;21785;-65
2021/01/11 04:56:19;;;;;;;131.27;50.83;;;;;;;2.19;98.44;101827.19;5002294;28;20129;-64
2021/01/11 04:58:54;;;;;;;132.23;50.30;;;;;;;2.18;99.42;101831.63;5003765;28;22217;-64
2021/01/11 05:01:24;;;;;;;130.30;44.97;;;;;;;2.18;99.39;101822.78;5001673;28;20061;-65
2021/01/11 05:03:51;;;;;;;144.20;54.63;;;;;;;2.17;98.79;101821.94;4999702;28;20062;-64
2021/01/11 05:06:17;;;;;;;148.75;52.33;;;;;;;2.17;99.53;101834.34;5001927;28;20058;-63
2021/01/11 05:08:44;;;;;;;138.50;48.33;;;;;;;2.16;99.05;101821.97;5002486;28;20137;-65
2021/01/11 05:11:09;;;;;;;145.77;47.70;;;;;;;2.14;99.71;101819.38;5001460;28;20507;-65
2021/01/11 05:16:35;;;;;;;137.07;46.33;;;;;;;2.15;99.46;101806.97;5029766;22;20046;-65
2021/01/11 05:19:22;;;;;;;153.88;50.75;;;;;;;2.15;99.52;101810.50;5020946;28;20056;-65
2021/01/11 05:21:48;;;;;;;159.02;51.08;;;;;;;2.14;99.14;101803.44;5022181;28;20046;-65
2021/01/11 05:24:30;;;;;;;155.85;45.30;;;;;;;2.12;99.39;101804.44;5019488;28;20056;-65
2021/01/11 05:26:57;;;;;;;157.75;50.38;;;;;;;2.12;100.00;101809.75;5016135;28;20086;-64
2021/01/11 05:29:24;;;;;;;161.63;50.00;;;;;;;2.14;99.35;101807.91;5019314;28;20121;-64
2021/01/11 05:31:56;;;;;;;147.32;46.70;;;;;;;2.18;100.00;101817.47;5019506;28;20500;-64
2021/01/11 05:34:23;;;;;;;156.68;47.22;;;;;;;2.22;99.91;101813.78;5020505;28;20551;-64
2021/01/11 05:36:50;;;;;;;156.27;47.60;;;;;;;2.16;99.48;101808.69;5020516;28;20061;-63
2021/01/11 05:39:16;;;;;;;159.77;48.30;;;;;;;2.16;100.00;101811.34;5019957;28;20104;-64
2021/01/11 05:41:43;;;;;;;158.45;49.88;;;;;;;2.12;100.00;101799.13;5019691;28;20060;-64
2021/01/11 05:44:13;;;;;;;149.70;46.55;;;;;;;2.14;100.00;101803.44;5020108;28;20419;-64
2021/01/11 05:46:40;;;;;;;149.55;47.22;;;;;;;2.15;100.00;101791.91;5020902;28;20050;-64
2021/01/11 05:49:08;;;;;;;164.30;50.55;;;;;;;2.15;100.00;101794.56;5016547;28;20100;-66
2021/01/11 05:51:36;;;;;;;157.68;48.95;;;;;;;2.15;100.00;101793.69;5020289;28;20053;-65
2021/01/11 05:54:03;;;;;;;162.43;48.15;;;;;;;2.19;100.00;101790.84;5016661;28;20049;-64
2021/01/11 05:56:53;;;;;;;167.98;51.40;;;;;;;2.15;100.00;101789.25;5020200;28;20045;-64
2021/01/11 05:59:19;;;;;;;164.15;49.10;;;;;;;2.14;100.00;101773.38;5012720;28;20054;-64
2021/01/11 06:01:46;;;;;;;150.27;47.55;;;;;;;2.15;100.00;101777.75;5018768;28;20049;-65
2021/01/11 06:04:12;;;;;;;168.88;47.67;;;;;;;2.19;100.00;101780.22;5019281;28;20064;-64
2021/01/11 06:06:39;;;;;;;164.07;50.05;;;;;;;2.16;100.00;101775.03;5018316;28;20046;-64
2021/01/11 06:09:07;;;;;;;166.05;52.58;;;;;;;2.14;100.00;101768.94;5019824;28;20045;-65
2021/01/11 06:11:36;;;;;;;134.50;39.90;;;;;;;2.17;100.00;101759.97;5020466;28;20414;-64
2021/01/11 06:14:05;;;;;;;158.88;46.45;;;;;;;2.17;100.00;101754.66;5018905;28;20057;-64
2021/01/11 06:16:31;;;;;;;167.88;53.03;;;;;;;2.14;100.00;101755.66;5021067;28;20080;-64
2021/01/11 06:18:58;;;;;;;164.35;52.95;;;;;;;2.12;100.00;101748.66;5019662;28;20076;-64
2021/01/11 06:21:24;;;;;;;156.13;48.85;;;;;;;2.16;100.00;101755.59;5019945;28;20053;-64
2021/01/11 06:24:14;;;;;;;164.20;49.00;;;;;;;2.15;100.00;101748.53;5018812;28;20045;-64
2021/01/11 06:26:39;;;;;;;;;;;;;;;2.17;100.00;101742.25;5018911;28;20451;-66
2021/01/11 06:29:27;;;;;;;161.65;48.20;;;;;;;2.18;100.00;101740.44;5016968;28;19948;-64
2021/01/11 06:31:56;;;;;;;156.50;49.20;;;;;;;2.21;100.00;101740.31;5018935;28;20045;-63
2021/01/11 06:34:33;;;;;;;157.63;48.10;;;;;;;2.20;100.00;101728.00;5017255;28;20046;-64
2021/01/11 06:36:59;;;;;;;161.05;48.03;;;;;;;2.24;100.00;101735.78;5019450;28;20435;-64
2021/01/11 06:39:31;;;;;;;160.00;51.00;;;;;;;2.23;100.00;101722.56;5018472;28;20635;-65
2021/01/11 06:41:58;;;;;;;155.10;51.58;;;;;;;2.25;100.00;101731.31;5019616;28;20059;-64
2021/01/11 06:44:27;;;;;;;152.25;55.22;;;;;;;2.26;100.00;101722.44;5018552;28;20041;-65
2021/01/11 06:46:53;;;;;;;139.77;46.00;;;;;;;2.26;100.00;101722.44;5018549;28;20049;-65
2021/01/11 06:49:27;;;;;;;135.80;48.83;;;;;;;2.31;100.00;101725.75;5017194;28;20056;-64
2021/01/11 06:52:07;;;;;;;161.15;60.50;;;;;;;2.34;100.00;101720.34;5017215;28;20053;-65
2021/01/11 06:54:39;;;;;;;159.00;57.45;;;;;;;2.33;100.00;101712.44;5015096;28;20046;-65
2021/01/11 06:57:08;;;;;;;148.07;51.47;;;;;;;2.32;100.00;101711.53;5020102;28;20094;-64
2021/01/11 06:59:37;;;;;;;146.02;47.50;;;;;;;2.36;100.00;101710.50;5018641;28;20052;-65
2021/01/11 07:02:18;;;;;;;150.40;50.10;;;;;;;2.36;100.00;101705.19;5017992;28;21523;-64
2021/01/11 07:04:44;;;;;;;147.40;51.08;;;;;;;2.37;100.00;101693.66;5015949;28;20061;-65
2021/01/11 07:07:18;;;;;;;131.00;47.72;;;;;;;2.43;100.00;101681.91;5019616;28;20077;-65
2021/01/11 07:09:53;;;;;;;128.40;46.90;;;;;;;2.44;100.00;101684.50;5018050;28;20058;-65
2021/01/11 07:12:19;;;;;;;125.85;47.90;;;;;;;2.51;100.00;101694.88;5017222;28;20068;-65
2021/01/11 07:14:58;;;;;;;136.52;52.75;;;;;;;2.46;100.00;101681.78;5019500;28;20056;-64
2021/01/11 07:17:36;;;;;;;126.40;46.53;;;;;;;2.50;100.00;101679.84;5017159;28;20057;-65
2021/01/11 07:20:02;;;;;;;125.63;52.22;;;;;;;2.48;100.00;101677.25;5016770;28;20411;-66
2021/01/11 07:22:28;;;;;;;112.60;47.08;;;;;;;2.52;100.00;101677.97;5017734;28;20049;-65
2021/01/11 07:24:54;;;;;;;124.95;50.40;;;;;;;2.54;100.00;101673.47;5019847;28;20049;-66
2021/01/11 07:27:20;;;;;;;114.60;46.90;;;;;;;2.55;100.00;101680.53;5016473;28;20522;-65
2021/01/11 07:29:46;;;;;;;117.00;50.25;;;;;;;2.57;100.00;101682.16;5020374;28;20455;-65
2021/01/11 07:32:13;;;;;;;103.38;44.63;;;;;;;2.63;100.00;101686.38;5018798;28;20132;-65
2021/01/11 07:34:39;;;;;;;97.55;45.13;;;;;;;2.64;99.88;101688.09;5019519;28;20050;-65
2021/01/11 07:37:06;;;;;;;99.85;45.42;;;;;;;2.63;100.00;101687.25;5018581;28;20046;-66
2021/01/11 07:39:33;;;;;;;88.65;43.60;;;;;;;2.67;99.99;101693.28;5021003;28;20136;-64
2021/01/11 07:42:00;;;;;;;95.28;44.47;;;;;;;2.67;100.00;101690.63;5018863;28;20057;-65
2021/01/11 07:44:31;;;;;;;91.40;40.15;;;;;;;2.71;100.00;101692.25;5016620;28;20410;-66
2021/01/11 07:46:59;;;;;;;105.15;43.50;;;;;;;2.70;100.00;101687.84;5017475;28;20057;-66
2021/01/11 07:49:28;;;;;;;86.40;44.25;;;;;;;2.71;99.75;101692.25;5018347;28;20050;-64
2021/01/11 07:52:00;;;;;;;95.40;45.20;;;;;;;2.70;99.61;101687.84;5018178;28;20038;-66
2021/01/11 07:54:26;;;;;;;86.45;42.45;;;;;;;2.74;99.69;101691.22;5017973;28;20045;-66
2021/01/11 07:56:52;;;;;;;173.23;49.13;;;;;;;2.82;99.29;101688.25;5007317;28;20104;-65
2021/01/11 07:59:19;;;;;;;242.85;53.67;;;;;;;2.78;99.48;101692.81;5007815;28;20061;-66
2021/01/11 08:01:47;;;;;;;197.30;51.97;;;;;;;2.80;99.51;101691.84;5018589;28;20057;-66
2021/01/11 08:04:14;;;;;;;78.47;39.90;;;;;;;2.78;99.66;101688.41;5014998;28;20048;-66
2021/01/11 08:06:48;;;;;;;70.35;37.80;;;;;;;2.79;98.86;101684.78;5017971;28;20050;-66
2021/01/11 08:57:38;;;;;;;54.70;30.50;;;;;;;2.93;97.48;101681.56;5039512;22;20050;-65
2021/01/11 09:00:08;;;;;;;57.20;31.15;;;;;;;2.91;98.08;101678.06;5037659;28;20465;-64
2021/01/11 09:02:34;;;;;;;52.38;30.67;;;;;;;2.95;97.89;101676.16;5037562;28;20049;-65
2021/01/11 09:05:16;;;;;;;49.20;29.52;;;;;;;2.95;98.19;101678.81;5039359;28;20063;-64
2021/01/11 09:07:42;;;;;;;49.38;29.77;;;;;;;3.01;97.15;101683.88;5029967;28;20127;-65
2021/01/11 09:10:31;;;;;;;45.00;25.50;;;;;;;3.02;97.26;101679.41;5033320;28;20045;-65
2021/01/11 09:13:16;;;;;;;47.53;26.10;;;;;;;3.03;96.68;101675.81;5029852;28;20052;-65
2021/01/11 09:15:42;;;;;;;50.13;25.67;;;;;;;3.04;97.47;101675.75;5041784;28;20121;-65
2021/01/11 09:18:11;;;;;;;49.03;25.02;;;;;;;3.02;96.76;101674.97;5040855;28;20053;-63
2021/01/11 09:20:37;;;;;;;53.00;27.85;;;;;;;3.03;97.48;101668.69;5039366;28;20063;-64
2021/01/11 09:23:04;;;;;;;46.60;27.00;;;;;;;3.04;96.79;101683.72;5042086;28;20061;-64
2021/01/11 09:25:32;;;;;;;45.83;24.88;;;;;;;3.03;97.16;101684.66;5038747;28;20490;-65
2021/01/11 09:27:59;;;;;;;43.10;24.88;;;;;;;3.05;96.78;101685.47;5040553;28;20056;-64
2021/01/11 09:30:27;;;;;;;48.40;25.55;;;;;;;3.06;96.97;101681.00;5036508;28;20049;-65
2021/01/11 09:32:53;;;;;;;45.55;25.23;;;;;;;3.17;96.62;101676.09;5038578;28;20065;-65
2021/01/11 09:35:19;;;;;;;41.95;23.42;;;;;;;3.12;96.54;101675.41;5037835;28;20655;-64
2021/01/11 09:37:45;;;;;;;45.95;23.52;;;;;;;3.14;96.82;101669.09;5039114;28;20059;-63
2021/01/11 09:40:12;;;;;;;39.30;23.92;;;;;;;3.11;96.60;101677.22;5038346;28;20041;-65
2021/01/11 09:42:38;;;;;;;41.40;23.40;;;;;;;3.14;97.09;101669.09;5038656;28;20049;-65
2021/01/11 09:45:07;;;;;;;43.22;24.60;;;;;;;3.12;96.63;101665.66;5039051;28;20057;-64
2021/01/11 09:47:33;;;;;;;39.53;22.10;;;;;;;3.15;96.39;101664.63;5037370;28;20509;-65
2021/01/11 09:50:00;;;;;;;38.25;22.10;;;;;;;3.18;96.69;101658.31;5038348;28;20063;-64
2021/01/11 09:52:26;;;;;;;37.35;21.95;;;;;;;3.19;96.41;101660.06;5038788;28;20056;-63
2021/01/11 09:54:52;;;;;;;37.42;22.48;;;;;;;3.20;96.23;101659.97;5037922;28;20375;-65
2021/01/11 09:57:18;;;;;;;37.40;23.08;;;;;;;3.23;96.47;101661.66;5038063;28;20053;-64
2021/01/11 09:59:44;;;;;;;38.35;22.50;;;;;;;3.26;95.98;101658.84;5038463;28;20494;-64
2021/01/11 10:02:11;;;;;;;35.95;20.98;;;;;;;3.25;96.26;101660.63;5037122;28;20045;-64
2021/01/11 10:04:37;;;;;;;41.47;23.90;;;;;;;3.28;95.66;101652.53;5037770;28;20057;-64
2021/01/11 10:07:03;;;;;;;36.47;21.73;;;;;;;3.29;95.78;101654.22;5036614;28;20414;-64
2021/01/11 10:09:30;;;;;;;38.53;23.83;;;;;;;3.27;96.18;101655.25;5027790;28;20041;-64
2021/01/11 10:11:57;;;;;;;41.40;26.13;;;;;;;3.23;96.09;101643.88;5039423;28;20049;-65
2021/01/11 10:14:23;;;;;;;46.10;26.75;;;;;;;3.23;96.38;101651.00;5037634;28;20383;-65
2021/01/11 10:16:50;;;;;;;42.08;22.45;;;;;;;3.25;95.87;101654.44;5030164;28;20414;-64
2021/01/11 10:19:18;;;;;;;40.83;23.85;;;;;;;3.23;95.73;101653.66;5037081;28;20056;-65
2021/01/11 10:21:44;;;;;;;41.97;25.33;;;;;;;3.20;96.14;101646.69;5038769;28;20080;-64
2021/01/11 10:24:11;;;;;;;53.55;25.48;;;;;;;3.22;95.85;101643.94;5039522;28;20057;-64
2021/01/11 10:26:41;;;;;;;43.30;23.38;;;;;;;3.23;96.04;101640.38;5039612;28;20107;-64
2021/01/11 10:31:35;;;;;;;40.70;25.70;;;;;;;3.24;96.01;101634.09;5068885;22;20060;-65
2021/01/11 10:34:01;;;;;;;37.92;21.92;;;;;;;3.31;95.95;101633.75;5055321;28;20048;-64
2021/01/11 10:36:28;;;;;;;39.00;21.40;;;;;;;3.30;95.59;101626.69;5058298;28;20056;-65
2021/01/11 10:38:54;;;;;;;39.60;24.08;;;;;;;3.33;95.91;101615.06;5054314;28;20052;-64
2021/01/11 10:41:21;;;;;;;35.85;23.17;;;;;;;3.33;96.04;101612.41;5054131;28;20048;-65
2021/01/11 10:43:48;;;;;;;35.60;23.02;;;;;;;3.35;95.62;101612.34;5054756;28;20563;-64
2021/01/11 10:46:15;;;;;;;33.83;21.70;;;;;;;3.38;95.27;101602.41;5054283;28;20044;-64
2021/01/11 10:48:41;;;;;;;36.45;22.60;;;;;;;3.36;95.77;101598.97;5055527;28;20516;-64
2021/01/11 10:51:10;;;;;;;37.42;20.58;;;;;;;3.42;95.81;101593.34;5056271;28;20045;-65
2021/01/11 10:53:38;;;;;;;33.25;21.13;;;;;;;3.47;95.30;101591.31;5054543;28;20060;-65
2021/01/11 10:56:05;;;;;;;36.38;20.42;;;;;;;3.46;95.02;101583.41;5056442;28;20166;-65
2021/01/11 10:58:31;;;;;;;28.52;18.58;;;;;;;3.50;95.23;101587.66;5051914;28;20049;-65
2021/01/11 11:00:57;;;;;;;29.75;18.13;;;;;;;3.56;94.67;101578.50;5054729;28;20052;-64
2021/01/11 11:03:23;;;;;;;29.02;19.20;;;;;;;3.52;95.17;101569.81;5053753;28;20057;-65
2021/01/11 11:05:50;;;;;;;30.42;20.42;;;;;;;3.51;94.82;101566.28;5054787;28;20095;-65
2021/01/11 11:08:16;;;;;;;31.55;18.75;;;;;;;3.53;94.82;101560.88;5054585;28;20064;-64
2021/01/11 11:10:43;;;;;;;30.13;18.58;;;;;;;3.60;94.64;101553.47;5058277;28;20045;-65
2021/01/11 11:13:09;;;;;;;27.33;17.13;;;;;;;3.63;94.53;101548.00;5056169;28;20562;-65
2021/01/11 11:15:35;;;;;;;31.10;18.45;;;;;;;3.64;94.49;101545.28;5046774;28;20048;-65
2021/01/11 11:18:00;;;;;;;27.35;16.80;;;;;;;3.65;94.89;101543.47;5054596;28;20110;-64
2021/01/11 11:20:26;;;;;;;23.65;17.40;;;;;;;3.66;94.76;101545.19;5052404;28;20525;-65
2021/01/11 11:22:53;;;;;;;25.70;16.40;;;;;;;3.70;94.23;101541.44;5049473;28;20129;-65
2021/01/11 11:25:20;;;;;;;26.75;19.17;;;;;;;3.70;94.09;101541.44;5055029;28;20056;-64
2021/01/11 11:27:47;;;;;;;25.58;17.02;;;;;;;3.71;94.47;101539.63;5057904;28;20566;-65
2021/01/11 11:30:15;;;;;;;28.92;18.27;;;;;;;3.71;93.86;101532.53;5057073;28;20048;-66
2021/01/11 11:32:44;;;;;;;24.92;16.45;;;;;;;3.73;93.76;101525.31;5054450;28;20417;-65
2021/01/11 11:35:11;;;;;;;27.77;18.63;;;;;;;3.73;94.17;101519.16;5055498;28;20053;-64
2021/01/11 11:37:37;;;;;;;24.30;16.33;;;;;;;3.78;93.88;101509.97;5053884;28;20057;-66
2021/01/11 11:40:04;;;;;;;27.55;15.25;;;;;;;3.76;93.68;101505.69;5057834;28;20045;-64
2021/01/11 11:42:34;;;;;;;29.02;15.38;;;;;;;3.75;93.86;101503.94;5056168;28;20048;-64
2021/01/11 11:45:00;;;;;;;;;;;;;;;3.77;93.99;101497.63;5058924;28;20143;-65
2021/01/11 11:47:26;;;;;;;25.23;15.85;;;;;;;3.80;93.75;101488.63;5054615;28;19924;-65
2021/01/11 11:49:52;;;;;;;22.08;14.98;;;;;;;3.84;93.86;101472.41;5056077;28;20068;-65
2021/01/11 11:52:18;;;;;;;21.58;14.02;;;;;;;3.90;93.42;101475.69;5056379;28;20051;-66
2021/01/11 11:54:44;;;;;;;20.23;13.13;;;;;;;3.92;93.12;101457.84;5053804;28;20055;-65
2021/01/11 11:57:10;;;;;;;22.85;14.38;;;;;;;3.97;92.90;101455.78;5056330;28;20044;-65
2021/01/11 11:59:36;;;;;;;20.30;13.48;;;;;;;4.01;92.97;101444.03;5054411;28;20059;-65
2021/01/11 12:02:02;;;;;;;20.63;14.75;;;;;;;3.98;92.63;101458.38;5054070;28;20056;-66
2021/01/11 12:04:28;;;;;;;22.10;13.95;;;;;;;3.99;92.83;101448.56;5057284;28;20048;-65
2021/01/11 12:06:56;;;;;;;22.55;14.02;;;;;;;3.98;92.75;101447.72;5056951;28;20055;-65
2021/01/11 12:09:21;;;;;;;21.40;15.10;;;;;;;3.96;93.04;101459.38;5060587;28;20056;-66
2021/01/11 12:11:49;;;;;;;24.35;15.18;;;;;;;3.94;92.61;101445.31;5060761;28;20049;-65
2021/01/11 12:14:15;;;;;;;22.65;13.88;;;;;;;3.98;92.24;101434.41;5059357;28;20336;-65
2021/01/11 12:16:42;;;;;;;21.00;13.57;;;;;;;3.98;92.83;101437.06;5060222;28;20059;-65
2021/01/11 12:19:08;;;;;;;19.10;14.23;;;;;;;4.01;92.29;101439.56;5059077;28;20049;-65